Hlavní strana
METAR-TAF:

METAR-TAF

Letiště :

Chartúm, Súdán

zeměpisná šířka: 15-36N, zeměpisná délka: 032-33E, výška: 382 m

Aktuální stav počasí

Zpráva byla vytvořena před 26 minutami, v 04:30 UTC
Severní vítr 8 kt
Teplota 27°C
Vlhkost vzduchu 21%
Tlak 1010 hPa
Viditelnost 10 km a více
Žádná oblačnost pod 1500 m, nevyskytují se cumulonimby.

METAR: HSSS 180430Z 36008KT CAVOK 27/03 Q1010 NOSIG

Čas: 07:56 (04:56 UTC)

Předpověď počasí

Zpráva byla vytvořena před 5 hodinami a 56 minutami, v 23:00 UTC
Předpověď platná od 18 v 00 UTC do 18 v 09 UTC
Severoseverozápadní vítr 8 kt s nárazy do 18 kt
Viditelnost 10 km a více
Žádná oblačnost pod 1500 m, nevyskytují se cumulonimby.
Dočasný
od 18 v 04 UTC do 18 v 09 UTC
Viditelnost: 6000 m

TAF: HSSS 172300Z 1800/1809 34008G18KT CAVOK TEMPO 1804/1809 6000

Stav a předpovědi počasí z více než 4 000 letišť (zprávy METAR a TAF).

Červené a žluté tečky na mapě představují dostupné meteorologické stanice.

Když kurzor umístíte na tečku, zobrazí se název stanice.

Pak kliknutím zobrazíte stav a předpověď počasí.

Chcete-li změnit mapu, kliknutím na zelené tlačítko se znaménkem +mapu přiblížíte, kliknutím na zelené tlačítko se znaménkem – mapu oddálíte a kliknutím na zelené šipky přejdete na sousední mapy.


METAR-TAF: